createdAt,value
2022-08-17T00:00:52.182Z,17.30
2022-08-17T00:03:24.429Z,17.52
2022-08-17T00:05:58.665Z,17.60
2022-08-17T00:08:32.095Z,17.55
2022-08-17T00:11:02.450Z,18.08
2022-08-17T00:13:35.341Z,17.50
2022-08-17T00:16:07.793Z,16.95
2022-08-17T00:18:58.300Z,16.35
2022-08-17T00:22:29.841Z,17.42
2022-08-17T00:24:21.753Z,17.65
2022-08-17T00:26:50.922Z,20.80
2022-08-17T00:29:20.805Z,19.83
2022-08-17T00:31:51.239Z,21.83
2022-08-17T00:34:20.542Z,22.77
2022-08-17T00:36:49.928Z,23.40
2022-08-17T00:39:20.987Z,24.65
2022-08-17T00:41:50.335Z,24.38
2022-08-17T00:44:19.753Z,25.15
2022-08-17T00:46:49.376Z,25.52
2022-08-17T00:49:19.905Z,23.77
2022-08-17T00:51:54.536Z,25.20
2022-08-17T00:54:28.736Z,24.75
2022-08-17T00:57:04.014Z,22.98
2022-08-17T00:59:37.942Z,24.48
2022-08-17T01:02:10.254Z,22.92
2022-08-17T01:04:40.220Z,24.38
2022-08-17T01:07:11.373Z,23.23
2022-08-17T01:09:42.886Z,22.17
2022-08-17T01:12:13.584Z,22.52
2022-08-17T01:14:43.012Z,20.80
2022-08-17T01:17:12.358Z,21.75
2022-08-17T01:19:43.157Z,21.02
2022-08-17T01:22:25.887Z,21.80
2022-08-17T01:24:59.977Z,21.10
2022-08-17T01:27:30.581Z,22.17
2022-08-17T01:30:04.469Z,21.97
2022-08-17T01:32:54.462Z,22.25
2022-08-17T01:35:23.936Z,24.13
2022-08-17T01:37:54.790Z,23.70
2022-08-17T01:40:30.678Z,23.63
2022-08-17T01:43:03.104Z,21.42
2022-08-17T01:45:35.253Z,23.48
2022-08-17T01:48:04.777Z,21.25
2022-08-17T01:50:38.175Z,20.67
2022-08-17T01:53:14.707Z,20.67
2022-08-17T01:55:50.756Z,21.67
2022-08-17T01:58:21.742Z,21.67
2022-08-17T02:01:01.174Z,21.90
2022-08-17T02:03:33.169Z,22.92
2022-08-17T02:06:02.609Z,21.80
2022-08-17T02:08:38.103Z,20.92
2022-08-17T02:11:14.180Z,19.83
2022-08-17T02:13:44.556Z,19.85
2022-08-17T02:16:16.032Z,19.05
2022-08-17T02:21:14.921Z,17.25
2022-08-17T02:23:49.678Z,16.10
2022-08-17T02:26:26.368Z,17.55
2022-08-17T02:28:56.416Z,16.15
2022-08-17T02:31:25.492Z,15.05
2022-08-17T02:33:56.840Z,14.60
2022-08-17T02:36:33.102Z,15.55
2022-08-17T02:39:04.789Z,14.07
2022-08-17T02:41:34.001Z,13.90
2022-08-17T02:44:03.462Z,12.85
2022-08-17T02:46:33.390Z,13.38
2022-08-17T02:49:03.518Z,13.38
2022-08-17T02:51:33.556Z,13.10
2022-08-17T02:54:40.687Z,13.50
2022-08-17T02:56:54.779Z,14.57
2022-08-17T02:59:24.609Z,14.43
2022-08-17T03:01:54.102Z,14.30
2022-08-17T03:04:23.726Z,13.27
2022-08-17T03:06:53.080Z,13.50
2022-08-17T03:09:23.429Z,13.93
2022-08-17T03:11:53.181Z,13.63
2022-08-17T03:14:26.359Z,13.13
2022-08-17T03:16:56.400Z,13.90
2022-08-17T03:19:25.589Z,16.38
2022-08-17T03:21:55.039Z,16.10
2022-08-17T03:24:28.949Z,18.40
2022-08-17T03:26:59.206Z,18.50
2022-08-17T03:29:28.556Z,22.17
2022-08-17T03:31:58.509Z,23.25
2022-08-17T03:34:29.284Z,25.45
2022-08-17T03:36:58.865Z,28.27
2022-08-17T03:39:29.940Z,29.70
2022-08-17T03:42:06.859Z,29.27
2022-08-17T03:44:37.343Z,31.25
2022-08-17T03:47:20.728Z,32.13
2022-08-17T03:50:10.416Z,31.20
2022-08-17T03:52:57.537Z,33.58
2022-08-17T03:55:45.420Z,31.88
2022-08-17T03:58:15.002Z,35.90
2022-08-17T04:00:46.453Z,34.10
2022-08-17T04:03:16.072Z,33.92
2022-08-17T04:05:45.395Z,34.08
2022-08-17T04:08:14.506Z,36.95
2022-08-17T04:10:45.482Z,35.97
2022-08-17T04:13:15.227Z,33.60
2022-08-17T04:15:53.466Z,35.97
2022-08-17T04:18:22.497Z,34.70
2022-08-17T04:20:52.444Z,34.65
2022-08-17T04:23:22.563Z,33.63
2022-08-17T04:25:55.866Z,35.05
2022-08-17T04:28:25.074Z,34.40
2022-08-17T04:30:54.325Z,35.45
2022-08-17T04:33:25.191Z,36.13
2022-08-17T04:35:56.316Z,36.95
2022-08-17T04:38:27.620Z,35.63
2022-08-17T04:43:47.555Z,34.35
2022-08-17T04:46:19.549Z,36.67
2022-08-17T04:48:51.621Z,35.38
2022-08-17T04:51:27.323Z,37.40
2022-08-17T04:53:59.126Z,38.13
2022-08-17T04:56:30.673Z,36.40
2022-08-17T04:59:05.435Z,38.00
2022-08-17T05:01:41.301Z,38.38
2022-08-17T05:04:33.130Z,38.67
2022-08-17T05:07:04.223Z,39.38
2022-08-17T05:09:33.929Z,37.65
2022-08-17T05:12:06.196Z,39.08
2022-08-17T05:14:36.062Z,38.65
2022-08-17T05:17:10.664Z,38.55
2022-08-17T05:19:41.337Z,38.15
2022-08-17T05:22:10.589Z,39.90
2022-08-17T05:24:43.704Z,41.85
2022-08-17T05:27:24.594Z,39.88
2022-08-17T05:29:59.024Z,38.67
2022-08-17T05:32:39.027Z,36.20
2022-08-17T05:35:18.551Z,37.47
2022-08-17T05:37:47.902Z,37.63
2022-08-17T05:40:17.375Z,36.20
2022-08-17T05:42:48.330Z,36.47
2022-08-17T05:45:54.705Z,36.45
2022-08-17T05:48:11.548Z,34.53
2022-08-17T05:50:50.921Z,34.05
2022-08-17T05:53:26.549Z,33.17
2022-08-17T05:56:11.602Z,33.33
2022-08-17T05:59:10.384Z,32.53
2022-08-17T06:01:49.830Z,31.40
2022-08-17T06:04:32.333Z,29.30
2022-08-17T06:07:11.715Z,31.30
2022-08-17T06:09:47.520Z,30.55
2022-08-17T06:12:35.725Z,27.65
2022-08-17T06:15:24.765Z,28.85
2022-08-17T06:17:57.526Z,28.73
2022-08-17T06:20:30.443Z,26.98
2022-08-17T06:23:07.597Z,27.20
2022-08-17T06:25:46.373Z,25.70
2022-08-17T06:28:24.431Z,25.42
2022-08-17T06:31:01.395Z,25.85
2022-08-17T06:33:34.801Z,23.63
2022-08-17T06:36:16.050Z,23.02
2022-08-17T06:41:31.671Z,21.45
2022-08-17T06:44:43.651Z,21.88
2022-08-17T06:47:12.934Z,20.25
2022-08-17T06:49:55.241Z,19.08
2022-08-17T06:52:42.173Z,19.45
2022-08-17T06:55:26.365Z,17.52
2022-08-17T06:58:05.788Z,18.10
2022-08-17T07:00:48.927Z,16.30
2022-08-17T07:03:38.032Z,16.42
2022-08-17T07:06:14.534Z,16.90
2022-08-17T07:08:54.873Z,15.85
2022-08-17T07:11:32.188Z,15.68
2022-08-17T07:14:17.500Z,15.00
2022-08-17T07:16:55.119Z,13.32
2022-08-17T07:19:29.220Z,13.75
2022-08-17T07:22:09.236Z,13.07
2022-08-17T07:24:47.949Z,12.90
2022-08-17T07:27:21.790Z,10.90
2022-08-17T07:29:55.131Z,10.80
2022-08-17T07:32:32.805Z,10.50
2022-08-17T07:35:16.937Z,11.00
2022-08-17T07:37:54.520Z,11.13
2022-08-17T07:40:42.668Z,9.43
2022-08-17T07:43:24.483Z,8.65
2022-08-17T07:46:22.259Z,8.88
2022-08-17T07:48:55.135Z,9.18
2022-08-17T07:51:31.426Z,10.77
2022-08-17T07:54:14.506Z,10.48
2022-08-17T07:56:48.085Z,9.43
2022-08-17T07:59:24.063Z,8.80
2022-08-17T08:02:31.752Z,8.90
2022-08-17T08:05:10.015Z,8.63
2022-08-17T08:07:54.432Z,8.15
2022-08-17T08:10:31.269Z,8.18
2022-08-17T08:13:08.600Z,8.38
2022-08-17T08:18:53.405Z,7.68
2022-08-17T08:21:29.858Z,7.65
2022-08-17T08:24:16.319Z,8.23
2022-08-17T08:26:55.615Z,8.77
2022-08-17T08:29:33.335Z,8.68
2022-08-17T08:32:23.022Z,7.63
2022-08-17T08:35:03.749Z,7.20
2022-08-17T08:37:46.983Z,8.65
2022-08-17T08:40:34.972Z,7.40
2022-08-17T08:43:16.681Z,6.95
2022-08-17T08:46:05.379Z,6.72
2022-08-17T08:49:09.989Z,6.38
2022-08-17T08:51:51.979Z,6.22
2022-08-17T08:54:35.442Z,5.68
2022-08-17T08:57:26.798Z,6.18
2022-08-17T09:00:10.186Z,6.28
2022-08-17T09:03:05.882Z,12.57
2022-08-17T09:05:49.871Z,5.80
2022-08-17T09:08:27.676Z,6.72
2022-08-17T09:11:01.655Z,6.25
2022-08-17T09:13:40.751Z,5.50
2022-08-17T09:16:16.626Z,4.72
2022-08-17T09:19:01.747Z,6.03
2022-08-17T09:21:48.440Z,4.90
2022-08-17T09:24:26.768Z,6.15
2022-08-17T09:27:02.607Z,5.20
2022-08-17T09:29:35.608Z,4.57
2022-08-17T09:32:14.909Z,4.82
2022-08-17T09:34:51.274Z,4.75
2022-08-17T09:37:38.839Z,4.38
2022-08-17T09:40:19.375Z,5.00
2022-08-17T09:46:02.034Z,4.68
2022-08-17T09:48:41.222Z,5.38
2022-08-17T09:51:19.845Z,4.28
2022-08-17T09:53:50.091Z,3.55
2022-08-17T09:56:56.435Z,4.30
2022-08-17T09:59:53.407Z,4.40
2022-08-17T10:02:44.389Z,4.30
2022-08-17T10:05:25.102Z,4.13
2022-08-17T10:08:09.565Z,4.10
2022-08-17T10:10:52.474Z,4.22
2022-08-17T10:13:35.564Z,3.58
2022-08-17T10:16:14.281Z,3.75
2022-08-17T10:18:53.297Z,3.88
2022-08-17T10:22:00.881Z,3.85
2022-08-17T10:25:01.890Z,4.18
2022-08-17T10:27:58.000Z,3.97
2022-08-17T10:30:41.105Z,3.75
2022-08-17T10:33:23.650Z,4.00
2022-08-17T10:36:06.385Z,3.92
2022-08-17T10:38:48.399Z,3.97
2022-08-17T10:41:38.166Z,4.03
2022-08-17T10:44:38.759Z,4.25
2022-08-17T10:47:11.522Z,3.88
2022-08-17T10:49:48.183Z,4.55
2022-08-17T10:52:54.878Z,4.70
2022-08-17T10:55:26.759Z,4.38
2022-08-17T10:58:22.189Z,3.90
2022-08-17T11:01:00.192Z,4.18
2022-08-17T11:03:33.748Z,4.25
2022-08-17T11:06:15.713Z,5.80
2022-08-17T11:09:31.780Z,5.05
2022-08-17T11:12:16.444Z,5.25
2022-08-17T11:15:03.031Z,6.00
2022-08-17T11:18:04.439Z,5.43
2022-08-17T11:23:40.920Z,4.28
2022-08-17T11:26:36.137Z,5.20
2022-08-17T11:29:24.735Z,4.20
2022-08-17T11:32:04.321Z,4.47
2022-08-17T11:34:35.746Z,4.68
2022-08-17T11:37:41.083Z,4.72
2022-08-17T11:40:34.798Z,4.25
2022-08-17T11:43:25.611Z,5.85
2022-08-17T11:46:12.124Z,5.40
2022-08-17T11:49:09.239Z,5.38
2022-08-17T11:52:13.807Z,5.35
2022-08-17T11:54:48.089Z,5.18
2022-08-17T11:57:47.450Z,5.03
2022-08-17T12:00:58.542Z,5.55
2022-08-17T12:06:51.688Z,6.20
2022-08-17T12:09:25.068Z,6.22
2022-08-17T12:12:12.182Z,5.88
2022-08-17T12:15:09.514Z,5.88
2022-08-17T12:17:53.111Z,5.95
2022-08-17T12:20:30.584Z,6.50
2022-08-17T12:23:09.717Z,6.40
2022-08-17T12:25:47.682Z,6.68
2022-08-17T12:28:26.410Z,6.53
2022-08-17T12:31:00.006Z,6.43
2022-08-17T12:33:33.258Z,6.25
2022-08-17T12:36:06.726Z,7.50
2022-08-17T12:38:39.832Z,9.32
2022-08-17T12:41:30.296Z,6.40
2022-08-17T12:44:02.903Z,7.07
2022-08-17T12:46:36.353Z,7.45
2022-08-17T12:49:24.691Z,7.40
2022-08-17T12:52:01.994Z,6.75
2022-08-17T12:54:41.237Z,6.75
2022-08-17T12:57:17.594Z,7.10
2022-08-17T12:59:51.863Z,7.43
2022-08-17T13:02:29.557Z,9.40
2022-08-17T13:05:02.231Z,7.80
2022-08-17T13:07:35.532Z,8.85
2022-08-17T13:10:07.337Z,7.50
2022-08-17T13:12:40.526Z,7.47
2022-08-17T13:15:18.701Z,8.00
2022-08-17T13:17:58.842Z,7.85
2022-08-17T13:20:30.423Z,8.68
2022-08-17T13:23:07.495Z,8.77
2022-08-17T13:25:43.186Z,8.80
2022-08-17T13:28:32.458Z,8.77
2022-08-17T13:31:28.136Z,9.55
2022-08-17T13:34:16.239Z,8.68
2022-08-17T13:36:50.798Z,9.13
2022-08-17T13:39:26.212Z,9.88
2022-08-17T13:41:58.720Z,8.70
2022-08-17T13:44:32.377Z,8.82
2022-08-17T13:47:03.417Z,10.15
2022-08-17T13:52:38.142Z,8.82
2022-08-17T13:55:17.264Z,8.55
2022-08-17T13:57:49.484Z,7.80
2022-08-17T14:00:36.691Z,8.48
2022-08-17T14:03:08.236Z,11.15
2022-08-17T14:05:40.237Z,12.60
2022-08-17T14:08:15.105Z,11.55
2022-08-17T14:10:53.541Z,10.98
2022-08-17T14:13:30.614Z,11.85
2022-08-17T14:16:03.485Z,12.20
2022-08-17T14:18:55.318Z,11.85
2022-08-17T14:21:25.189Z,12.10
2022-08-17T14:23:55.155Z,11.73
2022-08-17T14:26:25.677Z,11.43
2022-08-17T14:28:58.334Z,10.10
2022-08-17T14:31:37.401Z,9.70
2022-08-17T14:34:11.041Z,9.90
2022-08-17T14:36:48.209Z,8.85
2022-08-17T14:39:19.652Z,8.95
2022-08-17T14:44:22.341Z,8.02
2022-08-17T14:46:53.205Z,7.97
2022-08-17T14:49:26.101Z,11.05
2022-08-17T14:51:58.661Z,6.93
2022-08-17T14:54:34.302Z,7.10
2022-08-17T14:57:25.736Z,7.15
2022-08-17T15:00:04.516Z,6.43
2022-08-17T15:02:45.899Z,6.35
2022-08-17T15:05:16.840Z,6.82
2022-08-17T15:07:47.571Z,5.65
2022-08-17T15:10:20.706Z,5.80
2022-08-17T15:12:54.428Z,5.72
2022-08-17T15:15:25.853Z,5.20
2022-08-17T15:17:57.049Z,5.55
2022-08-17T15:20:30.082Z,4.90
2022-08-17T15:22:59.860Z,4.45
2022-08-17T15:25:34.232Z,4.93
2022-08-17T15:28:04.643Z,5.35
2022-08-17T15:30:45.289Z,4.72
2022-08-17T15:33:18.533Z,4.67
2022-08-17T15:35:53.625Z,4.80
2022-08-17T15:38:26.791Z,5.70
2022-08-17T15:40:58.629Z,4.55
2022-08-17T15:43:32.773Z,4.50
2022-08-17T15:46:14.800Z,4.80
2022-08-17T15:48:47.157Z,4.60
2022-08-17T15:51:21.269Z,5.03
2022-08-17T15:53:57.185Z,4.60
2022-08-17T15:56:28.106Z,5.03
2022-08-17T15:58:57.570Z,5.53
2022-08-17T16:02:59.327Z,4.70
2022-08-17T16:04:30.427Z,5.03
2022-08-17T16:07:01.768Z,5.75
2022-08-17T16:09:35.023Z,5.43
2022-08-17T16:12:14.256Z,5.38
2022-08-17T16:14:44.399Z,4.57
2022-08-17T16:17:38.808Z,4.57
2022-08-17T16:20:20.055Z,5.40
2022-08-17T16:22:54.434Z,5.63
2022-08-17T16:25:52.015Z,4.95
2022-08-17T16:28:35.761Z,5.30
2022-08-17T16:31:08.114Z,4.90
2022-08-17T16:33:41.238Z,4.97
2022-08-17T16:36:12.903Z,6.00
2022-08-17T16:38:45.555Z,5.45
2022-08-17T16:41:38.047Z,6.57
2022-08-17T16:44:08.525Z,5.38
2022-08-17T16:46:46.600Z,6.05
2022-08-17T16:52:11.514Z,5.57
2022-08-17T16:54:45.651Z,6.25
2022-08-17T16:57:18.653Z,5.63
2022-08-17T16:59:51.789Z,5.38
2022-08-17T17:02:32.869Z,6.18
2022-08-17T17:05:25.801Z,5.22
2022-08-17T17:08:03.710Z,6.85
2022-08-17T17:10:48.922Z,6.18
2022-08-17T17:13:27.357Z,8.25
2022-08-17T17:16:07.775Z,7.32
2022-08-17T17:18:58.644Z,5.80
2022-08-17T17:21:46.539Z,5.30
2022-08-17T17:24:35.954Z,6.10
2022-08-17T17:27:22.746Z,5.68
2022-08-17T17:30:40.311Z,5.93
2022-08-17T17:33:18.617Z,6.38
2022-08-17T17:36:33.340Z,6.25
2022-08-17T17:39:14.939Z,6.18
2022-08-17T17:42:04.869Z,5.97
2022-08-17T17:44:43.400Z,20.90
2022-08-17T17:47:17.965Z,37.45
2022-08-17T17:49:49.939Z,9.65
2022-08-17T17:52:28.264Z,19.05
2022-08-17T17:55:17.458Z,14.65
2022-08-17T17:58:04.165Z,15.68
2022-08-17T18:00:40.423Z,32.10
2022-08-17T18:03:31.821Z,8.85
2022-08-17T18:06:19.971Z,8.00
2022-08-17T18:09:07.532Z,13.85
2022-08-17T18:12:21.185Z,29.02
2022-08-17T18:15:12.155Z,10.65
2022-08-17T18:18:03.254Z,8.23
2022-08-17T18:20:53.453Z,9.75
2022-08-17T18:23:28.637Z,8.25
2022-08-17T18:25:59.843Z,8.50
2022-08-17T18:28:36.958Z,6.93
2022-08-17T18:31:13.779Z,7.93
2022-08-17T18:33:48.666Z,7.00
2022-08-17T18:36:29.697Z,8.00
2022-08-17T18:39:16.839Z,7.70
2022-08-17T18:41:52.303Z,6.03
2022-08-17T18:44:29.396Z,7.25
2022-08-17T18:47:14.889Z,6.38
2022-08-17T18:49:49.395Z,6.90
2022-08-17T18:52:26.261Z,6.80
2022-08-17T18:55:14.705Z,6.32
2022-08-17T18:57:47.754Z,6.30
2022-08-17T19:00:34.339Z,6.18
2022-08-17T19:03:07.693Z,6.10
2022-08-17T19:05:44.491Z,5.90
2022-08-17T19:08:24.122Z,6.80
2022-08-17T19:10:57.289Z,6.35
2022-08-17T19:13:33.076Z,6.25
2022-08-17T19:16:15.701Z,7.03
2022-08-17T19:18:52.122Z,6.25
2022-08-17T19:21:27.404Z,6.28
2022-08-17T19:24:04.876Z,5.90
2022-08-17T19:26:50.729Z,6.82
2022-08-17T19:29:34.200Z,5.90
2022-08-17T19:32:08.406Z,6.00
2022-08-17T19:34:44.743Z,5.90
2022-08-17T19:37:30.474Z,6.53
2022-08-17T19:40:10.221Z,6.20
2022-08-17T19:42:47.959Z,6.45
2022-08-17T19:45:32.880Z,5.85
2022-08-17T19:48:23.690Z,6.18
2022-08-17T19:51:03.025Z,5.85
2022-08-17T19:54:07.120Z,6.63
2022-08-17T19:56:49.035Z,6.32
2022-08-17T19:59:36.099Z,7.07
2022-08-17T20:02:32.237Z,6.38
2022-08-17T20:05:40.530Z,6.68
2022-08-17T20:08:50.918Z,6.32
2022-08-17T20:12:40.364Z,6.38
2022-08-17T20:15:13.780Z,5.65
2022-08-17T20:17:48.981Z,5.72
2022-08-17T20:20:34.075Z,6.32
2022-08-17T20:23:12.991Z,6.43
2022-08-17T20:26:09.037Z,5.80
2022-08-17T20:28:42.001Z,5.93
2022-08-17T20:31:46.170Z,5.93
2022-08-17T20:34:36.709Z,6.78
2022-08-17T20:37:12.335Z,6.07
2022-08-17T20:40:13.406Z,5.75
2022-08-17T20:42:49.129Z,6.00
2022-08-17T20:46:13.470Z,5.70
2022-08-17T20:48:46.871Z,5.97
2022-08-17T20:51:28.796Z,6.93
2022-08-17T20:54:36.837Z,6.38
2022-08-17T20:57:13.847Z,5.68
2022-08-17T21:00:14.266Z,6.40
2022-08-17T21:02:45.113Z,6.93
2022-08-17T21:05:43.215Z,6.22
2022-08-17T21:08:20.113Z,6.28
2022-08-17T21:10:50.512Z,7.78
2022-08-17T21:13:50.750Z,6.47
2022-08-17T21:16:38.887Z,6.15
2022-08-17T21:19:25.078Z,6.15
2022-08-17T21:22:07.581Z,5.93
2022-08-17T21:25:09.534Z,6.10
2022-08-17T21:27:50.471Z,5.22
2022-08-17T21:30:41.080Z,6.25
2022-08-17T21:33:24.530Z,6.78
2022-08-17T21:35:58.648Z,6.35
2022-08-17T21:38:36.145Z,5.93
2022-08-17T21:41:06.643Z,6.28
2022-08-17T21:43:38.342Z,6.68
2022-08-17T21:46:23.651Z,6.22
2022-08-17T21:48:56.414Z,5.85
2022-08-17T21:51:29.257Z,7.03
2022-08-17T21:54:01.460Z,6.22
2022-08-17T21:56:38.469Z,6.25
2022-08-17T21:59:10.432Z,6.72
2022-08-17T22:02:01.146Z,6.88
2022-08-17T22:04:32.495Z,7.03
2022-08-17T22:09:37.221Z,6.68
2022-08-17T22:12:11.570Z,6.45
2022-08-17T22:14:51.816Z,6.57
2022-08-17T22:17:27.277Z,6.15
2022-08-17T22:20:01.959Z,6.03
2022-08-17T22:23:01.938Z,6.18
2022-08-17T22:25:31.909Z,6.40
2022-08-17T22:28:03.230Z,6.78
2022-08-17T22:30:37.813Z,6.10
2022-08-17T22:33:38.401Z,6.50
2022-08-17T22:36:30.972Z,6.05
2022-08-17T22:39:02.124Z,6.60
2022-08-17T22:41:55.669Z,5.97
2022-08-17T22:44:29.693Z,6.22
2022-08-17T22:47:11.238Z,6.55
2022-08-17T22:49:53.167Z,5.90
2022-08-17T22:53:03.082Z,6.20
2022-08-17T22:55:48.582Z,5.53
2022-08-17T22:58:39.480Z,5.80
2022-08-17T23:01:25.817Z,5.90
2022-08-17T23:03:59.707Z,5.95
2022-08-17T23:06:37.832Z,6.10
2022-08-17T23:09:08.948Z,6.55
2022-08-17T23:11:48.714Z,6.57
2022-08-17T23:14:21.289Z,6.05
2022-08-17T23:16:53.106Z,7.28
2022-08-17T23:19:23.909Z,6.30
2022-08-17T23:21:58.028Z,6.90
2022-08-17T23:24:29.168Z,6.30
2022-08-17T23:27:00.134Z,6.50
2022-08-17T23:29:30.482Z,6.68
2022-08-17T23:32:01.717Z,7.05
2022-08-17T23:37:04.648Z,6.50
2022-08-17T23:39:34.784Z,6.45
2022-08-17T23:42:09.202Z,7.37
2022-08-17T23:44:39.676Z,6.80
2022-08-17T23:47:09.528Z,6.20
2022-08-17T23:49:39.265Z,6.45
2022-08-17T23:52:16.503Z,7.03
2022-08-17T23:54:48.503Z,6.30
2022-08-17T23:57:33.649Z,6.03
